sensor_id;sensor_type;location;lat;lon;timestamp;P1;durP1;ratioP1;P2;durP2;ratioP2
65572;SDS011;52214;50.940;13.996;2022-09-09T00:00:49;3.60;;;1.70;;
65572;SDS011;52214;50.940;13.996;2022-09-09T00:03:26;3.60;;;1.80;;
65572;SDS011;52214;50.940;13.996;2022-09-09T00:08:21;3.30;;;1.70;;
65572;SDS011;52214;50.940;13.996;2022-09-09T00:10:58;6.40;;;1.90;;
65572;SDS011;52214;50.940;13.996;2022-09-09T00:16:24;4.28;;;1.77;;
65572;SDS011;52214;50.940;13.996;2022-09-09T00:19:06;3.93;;;1.87;;
65572;SDS011;52214;50.940;13.996;2022-09-09T00:22:25;3.55;;;1.85;;
65572;SDS011;52214;50.940;13.996;2022-09-09T00:27:11;3.70;;;1.80;;
65572;SDS011;52214;50.940;13.996;2022-09-09T00:29:52;3.97;;;1.58;;
65572;SDS011;52214;50.940;13.996;2022-09-09T00:32:24;3.78;;;1.80;;
65572;SDS011;52214;50.940;13.996;2022-09-09T00:34:55;4.63;;;1.83;;
65572;SDS011;52214;50.940;13.996;2022-09-09T00:37:26;4.70;;;1.83;;
65572;SDS011;52214;50.940;13.996;2022-09-09T00:39:57;3.53;;;1.70;;
65572;SDS011;52214;50.940;13.996;2022-09-09T00:42:40;4.05;;;1.90;;
65572;SDS011;52214;50.940;13.996;2022-09-09T00:47:52;4.28;;;2.00;;
65572;SDS011;52214;50.940;13.996;2022-09-09T00:59:51;5.22;;;1.90;;
65572;SDS011;52214;50.940;13.996;2022-09-09T01:05:02;4.50;;;1.90;;
65572;SDS011;52214;50.940;13.996;2022-09-09T01:07:36;4.47;;;2.07;;
65572;SDS011;52214;50.940;13.996;2022-09-09T01:10:03;5.85;;;1.63;;
65572;SDS011;52214;50.940;13.996;2022-09-09T01:12:41;6.23;;;1.83;;
65572;SDS011;52214;50.940;13.996;2022-09-09T01:15:13;7.10;;;2.10;;
65572;SDS011;52214;50.940;13.996;2022-09-09T01:25:29;4.93;;;1.90;;
65572;SDS011;52214;50.940;13.996;2022-09-09T01:28:15;4.20;;;1.75;;
65572;SDS011;52214;50.940;13.996;2022-09-09T01:30:44;3.65;;;1.80;;
65572;SDS011;52214;50.940;13.996;2022-09-09T01:33:12;5.00;;;2.20;;
65572;SDS011;52214;50.940;13.996;2022-09-09T01:35:45;4.72;;;1.88;;
65572;SDS011;52214;50.940;13.996;2022-09-09T01:38:28;4.78;;;2.15;;
65572;SDS011;52214;50.940;13.996;2022-09-09T01:40:56;4.70;;;2.30;;
65572;SDS011;52214;50.940;13.996;2022-09-09T01:43:23;6.18;;;2.75;;
65572;SDS011;52214;50.940;13.996;2022-09-09T01:45:51;12.03;;;3.07;;
65572;SDS011;52214;50.940;13.996;2022-09-09T01:48:20;6.13;;;2.80;;
65572;SDS011;52214;50.940;13.996;2022-09-09T01:50:48;6.47;;;2.83;;
65572;SDS011;52214;50.940;13.996;2022-09-09T01:53:13;6.63;;;3.00;;
65572;SDS011;52214;50.940;13.996;2022-09-09T01:55:41;7.55;;;3.00;;
65572;SDS011;52214;50.940;13.996;2022-09-09T01:58:15;6.03;;;2.88;;
65572;SDS011;52214;50.940;13.996;2022-09-09T02:03:38;6.53;;;3.15;;
65572;SDS011;52214;50.940;13.996;2022-09-09T02:06:28;7.40;;;3.23;;
65572;SDS011;52214;50.940;13.996;2022-09-09T02:08:59;5.55;;;3.00;;
65572;SDS011;52214;50.940;13.996;2022-09-09T02:11:28;6.18;;;3.17;;
65572;SDS011;52214;50.940;13.996;2022-09-09T02:13:57;7.25;;;3.65;;
65572;SDS011;52214;50.940;13.996;2022-09-09T02:19:21;7.57;;;3.83;;
65572;SDS011;52214;50.940;13.996;2022-09-09T02:21:52;9.70;;;4.47;;
65572;SDS011;52214;50.940;13.996;2022-09-09T02:24:20;8.30;;;4.25;;
65572;SDS011;52214;50.940;13.996;2022-09-09T02:26:49;8.50;;;4.03;;
65572;SDS011;52214;50.940;13.996;2022-09-09T02:29:22;6.95;;;4.00;;
65572;SDS011;52214;50.940;13.996;2022-09-09T02:31:54;8.00;;;4.27;;
65572;SDS011;52214;50.940;13.996;2022-09-09T02:34:23;9.00;;;4.55;;
65572;SDS011;52214;50.940;13.996;2022-09-09T02:36:49;7.40;;;4.20;;
65572;SDS011;52214;50.940;13.996;2022-09-09T02:39:18;7.95;;;4.50;;
65572;SDS011;52214;50.940;13.996;2022-09-09T02:41:44;7.97;;;4.57;;
65572;SDS011;52214;50.940;13.996;2022-09-09T02:44:13;7.43;;;4.03;;
65572;SDS011;52214;50.940;13.996;2022-09-09T02:52:15;11.57;;;4.20;;
65572;SDS011;52214;50.940;13.996;2022-09-09T02:54:47;8.75;;;4.43;;
65572;SDS011;52214;50.940;13.996;2022-09-09T02:57:25;8.70;;;4.45;;
65572;SDS011;52214;50.940;13.996;2022-09-09T02:59:53;7.97;;;4.30;;
65572;SDS011;52214;50.940;13.996;2022-09-09T03:02:22;9.50;;;4.47;;
65572;SDS011;52214;50.940;13.996;2022-09-09T03:04:47;8.10;;;4.20;;
65572;SDS011;52214;50.940;13.996;2022-09-09T03:07:17;8.63;;;4.20;;
65572;SDS011;52214;50.940;13.996;2022-09-09T03:09:46;8.48;;;4.20;;
65572;SDS011;52214;50.940;13.996;2022-09-09T03:12:12;7.15;;;3.90;;
65572;SDS011;52214;50.940;13.996;2022-09-09T03:14:38;8.57;;;4.50;;
65572;SDS011;52214;50.940;13.996;2022-09-09T03:17:04;9.07;;;4.40;;
65572;SDS011;52214;50.940;13.996;2022-09-09T03:19:31;7.93;;;3.83;;
65572;SDS011;52214;50.940;13.996;2022-09-09T03:21:57;6.53;;;3.88;;
65572;SDS011;52214;50.940;13.996;2022-09-09T03:24:23;7.93;;;4.40;;
65572;SDS011;52214;50.940;13.996;2022-09-09T03:26:49;8.82;;;4.63;;
65572;SDS011;52214;50.940;13.996;2022-09-09T03:29:15;8.02;;;4.18;;
65572;SDS011;52214;50.940;13.996;2022-09-09T03:31:41;8.18;;;4.50;;
65572;SDS011;52214;50.940;13.996;2022-09-09T03:34:08;10.13;;;4.55;;
65572;SDS011;52214;50.940;13.996;2022-09-09T03:36:34;9.33;;;4.10;;
65572;SDS011;52214;50.940;13.996;2022-09-09T03:38:59;7.97;;;4.30;;
65572;SDS011;52214;50.940;13.996;2022-09-09T03:41:26;12.02;;;5.00;;
65572;SDS011;52214;50.940;13.996;2022-09-09T03:43:52;18.70;;;5.05;;
65572;SDS011;52214;50.940;13.996;2022-09-09T03:46:19;22.47;;;4.73;;
65572;SDS011;52214;50.940;13.996;2022-09-09T03:48:46;16.73;;;4.85;;
65572;SDS011;52214;50.940;13.996;2022-09-09T03:51:11;10.77;;;4.88;;
65572;SDS011;52214;50.940;13.996;2022-09-09T03:53:37;11.60;;;5.33;;
65572;SDS011;52214;50.940;13.996;2022-09-09T03:56:03;9.57;;;4.80;;
65572;SDS011;52214;50.940;13.996;2022-09-09T03:58:32;9.47;;;5.17;;
65572;SDS011;52214;50.940;13.996;2022-09-09T04:01:02;10.98;;;5.20;;
65572;SDS011;52214;50.940;13.996;2022-09-09T04:03:29;12.52;;;5.50;;
65572;SDS011;52214;50.940;13.996;2022-09-09T04:05:56;10.02;;;5.32;;
65572;SDS011;52214;50.940;13.996;2022-09-09T04:08:23;9.15;;;5.28;;
65572;SDS011;52214;50.940;13.996;2022-09-09T04:10:53;9.40;;;5.50;;
65572;SDS011;52214;50.940;13.996;2022-09-09T04:13:23;9.25;;;5.28;;
65572;SDS011;52214;50.940;13.996;2022-09-09T04:18:19;11.25;;;5.55;;
65572;SDS011;52214;50.940;13.996;2022-09-09T04:20:46;10.60;;;5.43;;
65572;SDS011;52214;50.940;13.996;2022-09-09T04:23:13;10.83;;;5.90;;
65572;SDS011;52214;50.940;13.996;2022-09-09T04:25:43;11.85;;;5.97;;
65572;SDS011;52214;50.940;13.996;2022-09-09T04:28:09;11.82;;;5.75;;
65572;SDS011;52214;50.940;13.996;2022-09-09T04:30:35;11.03;;;6.10;;
65572;SDS011;52214;50.940;13.996;2022-09-09T04:33:01;12.77;;;5.50;;
65572;SDS011;52214;50.940;13.996;2022-09-09T04:35:26;13.30;;;6.13;;
65572;SDS011;52214;50.940;13.996;2022-09-09T04:37:52;11.98;;;5.70;;
65572;SDS011;52214;50.940;13.996;2022-09-09T04:40:17;10.50;;;5.60;;
65572;SDS011;52214;50.940;13.996;2022-09-09T04:42:43;11.40;;;6.03;;
65572;SDS011;52214;50.940;13.996;2022-09-09T04:45:09;11.00;;;5.95;;
65572;SDS011;52214;50.940;13.996;2022-09-09T04:47:36;9.82;;;5.45;;
65572;SDS011;52214;50.940;13.996;2022-09-09T04:50:02;13.47;;;6.27;;
65572;SDS011;52214;50.940;13.996;2022-09-09T04:52:28;11.45;;;5.78;;
65572;SDS011;52214;50.940;13.996;2022-09-09T04:54:53;14.10;;;5.83;;
65572;SDS011;52214;50.940;13.996;2022-09-09T04:57:19;10.95;;;5.80;;
65572;SDS011;52214;50.940;13.996;2022-09-09T04:59:45;9.97;;;5.67;;
65572;SDS011;52214;50.940;13.996;2022-09-09T05:02:11;10.75;;;5.75;;
65572;SDS011;52214;50.940;13.996;2022-09-09T05:04:36;10.93;;;6.30;;
65572;SDS011;52214;50.940;13.996;2022-09-09T05:07:02;11.27;;;5.78;;
65572;SDS011;52214;50.940;13.996;2022-09-09T05:09:28;12.63;;;5.90;;
65572;SDS011;52214;50.940;13.996;2022-09-09T05:11:54;10.68;;;6.38;;
65572;SDS011;52214;50.940;13.996;2022-09-09T05:14:20;11.15;;;5.97;;
65572;SDS011;52214;50.940;13.996;2022-09-09T05:16:45;10.53;;;6.27;;
65572;SDS011;52214;50.940;13.996;2022-09-09T05:19:12;11.30;;;5.80;;
65572;SDS011;52214;50.940;13.996;2022-09-09T05:21:37;12.33;;;6.63;;
65572;SDS011;52214;50.940;13.996;2022-09-09T05:24:03;10.63;;;6.45;;
65572;SDS011;52214;50.940;13.996;2022-09-09T05:26:29;11.43;;;6.67;;
65572;SDS011;52214;50.940;13.996;2022-09-09T05:28:54;11.73;;;6.63;;
65572;SDS011;52214;50.940;13.996;2022-09-09T05:31:20;11.40;;;6.72;;
65572;SDS011;52214;50.940;13.996;2022-09-09T05:33:47;11.82;;;6.63;;
65572;SDS011;52214;50.940;13.996;2022-09-09T05:36:18;11.40;;;6.38;;
65572;SDS011;52214;50.940;13.996;2022-09-09T05:38:45;11.03;;;6.43;;
65572;SDS011;52214;50.940;13.996;2022-09-09T05:41:11;11.80;;;7.03;;
65572;SDS011;52214;50.940;13.996;2022-09-09T05:43:38;10.65;;;7.03;;
65572;SDS011;52214;50.940;13.996;2022-09-09T05:46:08;12.05;;;6.43;;
65572;SDS011;52214;50.940;13.996;2022-09-09T05:48:36;11.83;;;6.33;;
65572;SDS011;52214;50.940;13.996;2022-09-09T05:51:04;12.45;;;7.05;;
65572;SDS011;52214;50.940;13.996;2022-09-09T05:53:34;12.30;;;6.82;;
65572;SDS011;52214;50.940;13.996;2022-09-09T05:56:06;10.75;;;6.55;;
65572;SDS011;52214;50.940;13.996;2022-09-09T05:58:38;10.38;;;6.60;;
65572;SDS011;52214;50.940;13.996;2022-09-09T06:01:30;10.90;;;6.38;;
65572;SDS011;52214;50.940;13.996;2022-09-09T06:03:56;8.30;;;5.50;;
65572;SDS011;52214;50.940;13.996;2022-09-09T06:06:23;10.23;;;5.93;;
65572;SDS011;52214;50.940;13.996;2022-09-09T06:08:51;9.18;;;5.10;;
65572;SDS011;52214;50.940;13.996;2022-09-09T06:11:27;8.43;;;5.03;;
65572;SDS011;52214;50.940;13.996;2022-09-09T06:13:58;9.88;;;6.00;;
65572;SDS011;52214;50.940;13.996;2022-09-09T06:16:25;8.98;;;5.32;;
65572;SDS011;52214;50.940;13.996;2022-09-09T06:18:52;9.43;;;5.27;;
65572;SDS011;52214;50.940;13.996;2022-09-09T06:21:20;10.13;;;4.78;;
65572;SDS011;52214;50.940;13.996;2022-09-09T06:23:49;8.27;;;5.25;;
65572;SDS011;52214;50.940;13.996;2022-09-09T06:26:20;10.82;;;4.90;;
65572;SDS011;52214;50.940;13.996;2022-09-09T06:28:48;9.23;;;4.88;;
65572;SDS011;52214;50.940;13.996;2022-09-09T06:31:16;7.27;;;4.43;;
65572;SDS011;52214;50.940;13.996;2022-09-09T06:33:43;7.45;;;4.60;;
65572;SDS011;52214;50.940;13.996;2022-09-09T06:36:13;7.18;;;4.32;;
65572;SDS011;52214;50.940;13.996;2022-09-09T06:38:40;8.00;;;4.50;;
65572;SDS011;52214;50.940;13.996;2022-09-09T06:41:09;6.63;;;4.07;;
65572;SDS011;52214;50.940;13.996;2022-09-09T06:43:36;8.03;;;4.33;;
65572;SDS011;52214;50.940;13.996;2022-09-09T06:46:03;7.82;;;4.22;;
65572;SDS011;52214;50.940;13.996;2022-09-09T06:48:31;10.43;;;4.50;;
65572;SDS011;52214;50.940;13.996;2022-09-09T06:51:01;6.57;;;4.20;;
65572;SDS011;52214;50.940;13.996;2022-09-09T06:53:32;7.30;;;4.20;;
65572;SDS011;52214;50.940;13.996;2022-09-09T06:56:02;8.18;;;4.03;;
65572;SDS011;52214;50.940;13.996;2022-09-09T06:58:37;8.02;;;3.60;;
65572;SDS011;52214;50.940;13.996;2022-09-09T07:01:09;7.07;;;3.90;;
65572;SDS011;52214;50.940;13.996;2022-09-09T07:03:40;7.13;;;3.40;;
65572;SDS011;52214;50.940;13.996;2022-09-09T07:06:13;5.40;;;3.33;;
65572;SDS011;52214;50.940;13.996;2022-09-09T07:08:42;7.28;;;3.28;;
65572;SDS011;52214;50.940;13.996;2022-09-09T07:11:08;8.02;;;3.17;;
65572;SDS011;52214;50.940;13.996;2022-09-09T07:13:34;7.38;;;3.35;;
65572;SDS011;52214;50.940;13.996;2022-09-09T07:16:13;7.27;;;3.10;;
65572;SDS011;52214;50.940;13.996;2022-09-09T07:18:40;5.32;;;2.92;;
65572;SDS011;52214;50.940;13.996;2022-09-09T07:21:07;5.35;;;2.67;;
65572;SDS011;52214;50.940;13.996;2022-09-09T07:23:34;6.25;;;2.78;;
65572;SDS011;52214;50.940;13.996;2022-09-09T07:26:01;6.40;;;2.80;;
65572;SDS011;52214;50.940;13.996;2022-09-09T07:28:27;7.25;;;2.42;;
65572;SDS011;52214;50.940;13.996;2022-09-09T07:30:55;5.38;;;2.90;;
65572;SDS011;52214;50.940;13.996;2022-09-09T07:33:22;5.75;;;2.53;;
65572;SDS011;52214;50.940;13.996;2022-09-09T07:35:49;7.22;;;2.72;;
65572;SDS011;52214;50.940;13.996;2022-09-09T07:38:15;6.45;;;2.60;;
65572;SDS011;52214;50.940;13.996;2022-09-09T07:40:41;5.28;;;2.28;;
65572;SDS011;52214;50.940;13.996;2022-09-09T07:43:07;3.80;;;2.07;;
65572;SDS011;52214;50.940;13.996;2022-09-09T07:45:33;5.47;;;2.22;;
65572;SDS011;52214;50.940;13.996;2022-09-09T07:47:59;4.27;;;2.30;;
65572;SDS011;52214;50.940;13.996;2022-09-09T07:50:25;5.53;;;1.95;;
65572;SDS011;52214;50.940;13.996;2022-09-09T07:52:51;6.60;;;1.98;;
65572;SDS011;52214;50.940;13.996;2022-09-09T07:55:19;4.60;;;1.93;;
65572;SDS011;52214;50.940;13.996;2022-09-09T07:57:45;4.25;;;1.75;;
65572;SDS011;52214;50.940;13.996;2022-09-09T08:00:11;3.70;;;1.70;;
65572;SDS011;52214;50.940;13.996;2022-09-09T08:02:37;4.37;;;1.70;;
65572;SDS011;52214;50.940;13.996;2022-09-09T08:05:03;3.92;;;1.60;;
65572;SDS011;52214;50.940;13.996;2022-09-09T08:07:29;5.87;;;1.70;;
65572;SDS011;52214;50.940;13.996;2022-09-09T08:09:55;3.60;;;1.65;;
65572;SDS011;52214;50.940;13.996;2022-09-09T08:12:20;4.17;;;1.70;;
65572;SDS011;52214;50.940;13.996;2022-09-09T08:14:46;5.43;;;2.65;;
65572;SDS011;52214;50.940;13.996;2022-09-09T08:17:12;3.50;;;1.80;;
65572;SDS011;52214;50.940;13.996;2022-09-09T08:19:38;5.47;;;1.80;;
65572;SDS011;52214;50.940;13.996;2022-09-09T08:22:03;5.67;;;1.90;;
65572;SDS011;52214;50.940;13.996;2022-09-09T08:24:29;4.70;;;1.90;;
65572;SDS011;52214;50.940;13.996;2022-09-09T08:26:54;3.65;;;1.80;;
65572;SDS011;52214;50.940;13.996;2022-09-09T08:29:22;5.65;;;1.90;;
65572;SDS011;52214;50.940;13.996;2022-09-09T08:31:55;4.13;;;1.60;;
65572;SDS011;52214;50.940;13.996;2022-09-09T08:34:23;4.72;;;1.80;;
65572;SDS011;52214;50.940;13.996;2022-09-09T08:36:50;3.35;;;1.70;;
65572;SDS011;52214;50.940;13.996;2022-09-09T08:39:17;4.90;;;1.90;;
65572;SDS011;52214;50.940;13.996;2022-09-09T08:45:04;5.88;;;1.60;;
65572;SDS011;52214;50.940;13.996;2022-09-09T08:50:16;3.90;;;1.85;;
65572;SDS011;52214;50.940;13.996;2022-09-09T08:53:00;3.53;;;1.70;;
65572;SDS011;52214;50.940;13.996;2022-09-09T08:55:48;5.20;;;1.90;;
65572;SDS011;52214;50.940;13.996;2022-09-09T08:58:17;4.78;;;1.90;;
65572;SDS011;52214;50.940;13.996;2022-09-09T09:06:22;4.50;;;1.85;;
65572;SDS011;52214;50.940;13.996;2022-09-09T09:09:00;5.03;;;1.80;;
65572;SDS011;52214;50.940;13.996;2022-09-09T09:11:39;3.22;;;1.23;;
65572;SDS011;52214;50.940;13.996;2022-09-09T09:14:23;3.30;;;1.30;;
65572;SDS011;52214;50.940;13.996;2022-09-09T09:16:56;4.47;;;1.40;;
65572;SDS011;52214;50.940;13.996;2022-09-09T09:19:24;3.25;;;1.48;;
65572;SDS011;52214;50.940;13.996;2022-09-09T09:22:39;4.30;;;1.37;;
65572;SDS011;52214;50.940;13.996;2022-09-09T09:24:59;3.22;;;1.33;;
65572;SDS011;52214;50.940;13.996;2022-09-09T09:27:58;5.95;;;1.20;;
65572;SDS011;52214;50.940;13.996;2022-09-09T09:30:28;4.03;;;1.20;;
65572;SDS011;52214;50.940;13.996;2022-09-09T09:33:01;3.03;;;1.20;;
65572;SDS011;52214;50.940;13.996;2022-09-09T09:35:30;3.60;;;1.10;;
65572;SDS011;52214;50.940;13.996;2022-09-09T09:37:56;3.33;;;1.10;;
65572;SDS011;52214;50.940;13.996;2022-09-09T09:40:22;4.25;;;1.15;;
65572;SDS011;52214;50.940;13.996;2022-09-09T09:42:58;4.18;;;1.23;;
65572;SDS011;52214;50.940;13.996;2022-09-09T09:47:59;6.05;;;1.35;;
65572;SDS011;52214;50.940;13.996;2022-09-09T09:50:27;3.70;;;1.15;;
65572;SDS011;52214;50.940;13.996;2022-09-09T09:52:53;4.90;;;1.47;;
65572;SDS011;52214;50.940;13.996;2022-09-09T09:55:21;4.13;;;1.33;;
65572;SDS011;52214;50.940;13.996;2022-09-09T09:57:47;4.32;;;1.48;;
65572;SDS011;52214;50.940;13.996;2022-09-09T10:00:22;4.10;;;1.00;;
65572;SDS011;52214;50.940;13.996;2022-09-09T10:02:48;4.72;;;1.10;;
65572;SDS011;52214;50.940;13.996;2022-09-09T10:05:23;4.35;;;1.42;;
65572;SDS011;52214;50.940;13.996;2022-09-09T10:10:44;3.77;;;1.40;;
65572;SDS011;52214;50.940;13.996;2022-09-09T10:19:21;3.10;;;1.15;;
65572;SDS011;52214;50.940;13.996;2022-09-09T10:28:25;3.72;;;1.50;;
65572;SDS011;52214;50.940;13.996;2022-09-09T10:31:07;4.40;;;1.10;;
65572;SDS011;52214;50.940;13.996;2022-09-09T10:36:31;4.05;;;1.00;;
65572;SDS011;52214;50.940;13.996;2022-09-09T10:38:58;3.80;;;1.10;;
65572;SDS011;52214;50.940;13.996;2022-09-09T10:44:30;6.80;;;1.17;;
65572;SDS011;52214;50.940;13.996;2022-09-09T10:55:20;4.50;;;1.20;;
65572;SDS011;52214;50.940;13.996;2022-09-09T10:57:55;5.40;;;1.10;;
65572;SDS011;52214;50.940;13.996;2022-09-09T11:00:24;5.87;;;1.10;;
65572;SDS011;52214;50.940;13.996;2022-09-09T11:03:06;3.30;;;1.13;;
65572;SDS011;52214;50.940;13.996;2022-09-09T11:05:45;5.40;;;1.20;;
65572;SDS011;52214;50.940;13.996;2022-09-09T11:08:24;4.00;;;1.27;;
65572;SDS011;52214;50.940;13.996;2022-09-09T11:13:38;4.20;;;1.40;;
65572;SDS011;52214;50.940;13.996;2022-09-09T11:18:51;3.80;;;1.23;;
65572;SDS011;52214;50.940;13.996;2022-09-09T11:21:28;5.13;;;1.50;;
65572;SDS011;52214;50.940;13.996;2022-09-09T11:24:02;3.42;;;1.17;;
65572;SDS011;52214;50.940;13.996;2022-09-09T11:27:36;3.40;;;1.27;;
65572;SDS011;52214;50.940;13.996;2022-09-09T11:40:54;4.63;;;1.30;;
65572;SDS011;52214;50.940;13.996;2022-09-09T11:46:31;3.75;;;1.08;;
65572;SDS011;52214;50.940;13.996;2022-09-09T11:49:38;4.15;;;1.50;;
65572;SDS011;52214;50.940;13.996;2022-09-09T11:52:38;3.25;;;1.40;;
65572;SDS011;52214;50.940;13.996;2022-09-09T11:55:26;3.77;;;1.43;;
65572;SDS011;52214;50.940;13.996;2022-09-09T12:00:57;3.13;;;1.20;;
65572;SDS011;52214;50.940;13.996;2022-09-09T12:08:44;3.40;;;1.20;;
65572;SDS011;52214;50.940;13.996;2022-09-09T12:11:23;3.75;;;1.27;;
65572;SDS011;52214;50.940;13.996;2022-09-09T12:13:54;2.90;;;0.95;;
65572;SDS011;52214;50.940;13.996;2022-09-09T12:16:34;4.03;;;1.00;;
65572;SDS011;52214;50.940;13.996;2022-09-09T12:21:40;4.55;;;1.38;;
65572;SDS011;52214;50.940;13.996;2022-09-09T12:24:17;4.75;;;1.63;;
65572;SDS011;52214;50.940;13.996;2022-09-09T12:26:54;5.97;;;1.60;;
65572;SDS011;52214;50.940;13.996;2022-09-09T12:29:27;4.70;;;1.80;;
65572;SDS011;52214;50.940;13.996;2022-09-09T12:34:40;7.00;;;2.15;;
65572;SDS011;52214;50.940;13.996;2022-09-09T12:40:04;7.53;;;2.20;;
65572;SDS011;52214;50.940;13.996;2022-09-09T12:42:31;5.70;;;1.57;;
65572;SDS011;52214;50.940;13.996;2022-09-09T12:45:01;4.07;;;1.80;;
65572;SDS011;52214;50.940;13.996;2022-09-09T12:50:02;6.30;;;2.13;;
65572;SDS011;52214;50.940;13.996;2022-09-09T12:52:32;4.38;;;1.77;;
65572;SDS011;52214;50.940;13.996;2022-09-09T12:55:01;5.23;;;2.03;;
65572;SDS011;52214;50.940;13.996;2022-09-09T12:57:31;4.40;;;1.70;;
65572;SDS011;52214;50.940;13.996;2022-09-09T13:00:15;4.30;;;1.83;;
65572;SDS011;52214;50.940;13.996;2022-09-09T13:02:55;4.65;;;1.80;;
65572;SDS011;52214;50.940;13.996;2022-09-09T13:05:26;8.30;;;2.10;;
65572;SDS011;52214;50.940;13.996;2022-09-09T13:08:03;5.87;;;1.90;;
65572;SDS011;52214;50.940;13.996;2022-09-09T13:10:32;4.07;;;2.00;;
65572;SDS011;52214;50.940;13.996;2022-09-09T13:13:01;5.78;;;2.30;;
65572;SDS011;52214;50.940;13.996;2022-09-09T13:15:28;5.53;;;1.90;;
65572;SDS011;52214;50.940;13.996;2022-09-09T13:17:55;4.50;;;2.17;;
65572;SDS011;52214;50.940;13.996;2022-09-09T13:20:25;4.17;;;2.10;;
65572;SDS011;52214;50.940;13.996;2022-09-09T13:22:52;6.75;;;2.65;;
65572;SDS011;52214;50.940;13.996;2022-09-09T13:25:23;3.80;;;2.20;;
65572;SDS011;52214;50.940;13.996;2022-09-09T13:30:30;4.03;;;1.70;;
65572;SDS011;52214;50.940;13.996;2022-09-09T13:33:00;7.40;;;2.93;;
65572;SDS011;52214;50.940;13.996;2022-09-09T13:35:31;5.22;;;2.40;;
65572;SDS011;52214;50.940;13.996;2022-09-09T13:37:57;3.90;;;2.13;;
65572;SDS011;52214;50.940;13.996;2022-09-09T13:40:25;4.18;;;2.15;;
65572;SDS011;52214;50.940;13.996;2022-09-09T13:42:51;4.70;;;2.40;;
65572;SDS011;52214;50.940;13.996;2022-09-09T13:45:21;5.20;;;2.58;;
65572;SDS011;52214;50.940;13.996;2022-09-09T13:47:51;5.03;;;2.28;;
65572;SDS011;52214;50.940;13.996;2022-09-09T13:50:27;8.43;;;2.35;;
65572;SDS011;52214;50.940;13.996;2022-09-09T13:52:56;5.03;;;2.20;;
65572;SDS011;52214;50.940;13.996;2022-09-09T13:55:26;5.67;;;2.47;;
65572;SDS011;52214;50.940;13.996;2022-09-09T13:57:54;5.60;;;2.60;;
65572;SDS011;52214;50.940;13.996;2022-09-09T14:00:30;6.40;;;2.75;;
65572;SDS011;52214;50.940;13.996;2022-09-09T14:02:58;5.30;;;2.40;;
65572;SDS011;52214;50.940;13.996;2022-09-09T14:05:26;4.50;;;2.42;;
65572;SDS011;52214;50.940;13.996;2022-09-09T14:07:52;5.70;;;2.40;;
65572;SDS011;52214;50.940;13.996;2022-09-09T14:10:17;5.33;;;2.87;;
65572;SDS011;52214;50.940;13.996;2022-09-09T14:12:43;4.93;;;2.80;;
65572;SDS011;52214;50.940;13.996;2022-09-09T14:15:09;5.33;;;2.63;;
65572;SDS011;52214;50.940;13.996;2022-09-09T14:17:36;5.80;;;2.67;;
65572;SDS011;52214;50.940;13.996;2022-09-09T14:20:05;6.17;;;2.50;;
65572;SDS011;52214;50.940;13.996;2022-09-09T14:22:34;6.50;;;2.80;;
65572;SDS011;52214;50.940;13.996;2022-09-09T14:25:01;4.50;;;2.40;;
65572;SDS011;52214;50.940;13.996;2022-09-09T14:27:27;5.35;;;1.90;;
65572;SDS011;52214;50.940;13.996;2022-09-09T14:29:53;4.70;;;1.60;;
65572;SDS011;52214;50.940;13.996;2022-09-09T14:32:19;3.90;;;1.80;;
65572;SDS011;52214;50.940;13.996;2022-09-09T14:34:46;4.50;;;1.60;;
65572;SDS011;52214;50.940;13.996;2022-09-09T14:37:15;3.85;;;1.60;;
65572;SDS011;52214;50.940;13.996;2022-09-09T14:39:41;5.07;;;2.37;;
65572;SDS011;52214;50.940;13.996;2022-09-09T14:42:09;7.88;;;2.75;;
65572;SDS011;52214;50.940;13.996;2022-09-09T14:44:36;6.30;;;2.80;;
65572;SDS011;52214;50.940;13.996;2022-09-09T14:47:04;5.78;;;1.70;;
65572;SDS011;52214;50.940;13.996;2022-09-09T14:49:30;7.32;;;2.00;;
65572;SDS011;52214;50.940;13.996;2022-09-09T14:51:56;4.97;;;1.90;;
65572;SDS011;52214;50.940;13.996;2022-09-09T14:54:22;4.65;;;1.80;;
65572;SDS011;52214;50.940;13.996;2022-09-09T14:56:48;4.15;;;1.58;;
65572;SDS011;52214;50.940;13.996;2022-09-09T14:59:13;5.67;;;1.50;;
65572;SDS011;52214;50.940;13.996;2022-09-09T15:01:39;6.40;;;1.40;;
65572;SDS011;52214;50.940;13.996;2022-09-09T15:04:05;3.63;;;1.10;;
65572;SDS011;52214;50.940;13.996;2022-09-09T15:06:31;5.88;;;1.50;;
65572;SDS011;52214;50.940;13.996;2022-09-09T15:08:58;4.83;;;1.27;;
65572;SDS011;52214;50.940;13.996;2022-09-09T15:11:29;5.13;;;1.10;;
65572;SDS011;52214;50.940;13.996;2022-09-09T15:13:58;5.60;;;1.13;;
65572;SDS011;52214;50.940;13.996;2022-09-09T15:16:24;4.70;;;1.23;;
65572;SDS011;52214;50.940;13.996;2022-09-09T15:18:52;3.83;;;1.20;;
65572;SDS011;52214;50.940;13.996;2022-09-09T15:21:20;3.40;;;1.25;;
65572;SDS011;52214;50.940;13.996;2022-09-09T15:23:48;5.60;;;1.40;;
65572;SDS011;52214;50.940;13.996;2022-09-09T15:26:14;3.33;;;1.35;;
65572;SDS011;52214;50.940;13.996;2022-09-09T15:28:40;5.00;;;1.50;;
65572;SDS011;52214;50.940;13.996;2022-09-09T15:31:27;4.10;;;1.67;;
65572;SDS011;52214;50.940;13.996;2022-09-09T15:33:56;5.72;;;1.80;;
65572;SDS011;52214;50.940;13.996;2022-09-09T15:36:29;6.35;;;2.17;;
65572;SDS011;52214;50.940;13.996;2022-09-09T15:39:06;4.40;;;1.60;;
65572;SDS011;52214;50.940;13.996;2022-09-09T15:41:34;4.60;;;1.27;;
65572;SDS011;52214;50.940;13.996;2022-09-09T15:44:01;4.13;;;1.40;;
65572;SDS011;52214;50.940;13.996;2022-09-09T15:46:33;3.88;;;1.50;;
65572;SDS011;52214;50.940;13.996;2022-09-09T15:49:05;5.22;;;1.40;;
65572;SDS011;52214;50.940;13.996;2022-09-09T15:51:35;9.30;;;1.60;;
65572;SDS011;52214;50.940;13.996;2022-09-09T15:54:02;4.68;;;1.38;;
65572;SDS011;52214;50.940;13.996;2022-09-09T15:56:29;5.07;;;1.60;;
65572;SDS011;52214;50.940;13.996;2022-09-09T15:58:58;4.95;;;1.60;;
65572;SDS011;52214;50.940;13.996;2022-09-09T16:01:25;10.23;;;2.20;;
65572;SDS011;52214;50.940;13.996;2022-09-09T16:03:52;4.25;;;1.75;;
65572;SDS011;52214;50.940;13.996;2022-09-09T16:06:19;5.53;;;1.90;;
65572;SDS011;52214;50.940;13.996;2022-09-09T16:08:47;6.93;;;2.20;;
65572;SDS011;52214;50.940;13.996;2022-09-09T16:11:17;4.40;;;2.17;;
65572;SDS011;52214;50.940;13.996;2022-09-09T16:13:48;4.25;;;2.00;;
65572;SDS011;52214;50.940;13.996;2022-09-09T16:16:16;4.88;;;2.10;;
65572;SDS011;52214;50.940;13.996;2022-09-09T16:18:45;5.13;;;2.20;;
65572;SDS011;52214;50.940;13.996;2022-09-09T16:21:16;5.85;;;2.28;;
65572;SDS011;52214;50.940;13.996;2022-09-09T16:23:45;5.63;;;2.50;;
65572;SDS011;52214;50.940;13.996;2022-09-09T16:26:12;5.05;;;2.10;;
65572;SDS011;52214;50.940;13.996;2022-09-09T16:28:40;5.15;;;2.22;;
65572;SDS011;52214;50.940;13.996;2022-09-09T16:31:13;6.10;;;2.20;;
65572;SDS011;52214;50.940;13.996;2022-09-09T16:33:44;4.88;;;2.08;;
65572;SDS011;52214;50.940;13.996;2022-09-09T16:36:12;6.97;;;2.20;;
65572;SDS011;52214;50.940;13.996;2022-09-09T16:38:59;4.00;;;1.60;;
65572;SDS011;52214;50.940;13.996;2022-09-09T16:41:28;5.38;;;1.70;;
65572;SDS011;52214;50.940;13.996;2022-09-09T16:43:58;5.88;;;1.75;;
65572;SDS011;52214;50.940;13.996;2022-09-09T16:46:25;3.53;;;1.70;;
65572;SDS011;52214;50.940;13.996;2022-09-09T16:48:53;3.80;;;2.00;;
65572;SDS011;52214;50.940;13.996;2022-09-09T16:51:22;5.82;;;2.00;;
65572;SDS011;52214;50.940;13.996;2022-09-09T16:53:49;3.83;;;1.80;;
65572;SDS011;52214;50.940;13.996;2022-09-09T16:56:18;6.30;;;2.40;;
65572;SDS011;52214;50.940;13.996;2022-09-09T16:58:59;5.20;;;2.33;;